createdAt,value
2023-05-13T00:01:30.158Z,10.25
2023-05-13T00:04:31.267Z,10.63
2023-05-13T00:07:32.772Z,10.07
2023-05-13T00:10:35.184Z,9.90
2023-05-13T00:13:36.348Z,10.10
2023-05-13T00:16:37.433Z,10.25
2023-05-13T00:19:38.725Z,10.23
2023-05-13T00:22:39.468Z,10.80
2023-05-13T00:25:41.576Z,11.05
2023-05-13T00:28:42.916Z,10.00
2023-05-13T00:31:44.429Z,9.20
2023-05-13T00:34:45.860Z,10.00
2023-05-13T00:37:47.061Z,10.13
2023-05-13T00:40:49.940Z,10.13
2023-05-13T00:43:57.070Z,10.98
2023-05-13T00:46:58.416Z,9.90
2023-05-13T00:49:59.472Z,11.30
2023-05-13T00:53:00.710Z,10.35
2023-05-13T00:56:02.178Z,10.73
2023-05-13T00:59:03.436Z,10.35
2023-05-13T01:02:43.163Z,9.80
2023-05-13T01:06:08.912Z,9.73
2023-05-13T01:09:34.008Z,9.80
2023-05-13T01:12:44.061Z,9.52
2023-05-13T01:16:14.711Z,10.13
2023-05-13T01:19:57.909Z,10.10
2023-05-13T01:22:59.427Z,8.80
2023-05-13T01:26:00.759Z,9.73
2023-05-13T01:29:02.531Z,9.60
2023-05-13T01:32:05.095Z,9.55
2023-05-13T01:35:09.314Z,9.43
2023-05-13T01:38:16.220Z,9.63
2023-05-13T01:41:22.333Z,9.55
2023-05-13T01:44:23.359Z,9.27
2023-05-13T01:47:24.565Z,9.15
2023-05-13T01:50:26.498Z,10.00
2023-05-13T01:53:28.109Z,9.52
2023-05-13T01:56:29.184Z,9.07
2023-05-13T01:59:31.447Z,9.82
2023-05-13T02:02:33.762Z,9.63
2023-05-13T02:05:34.854Z,9.43
2023-05-13T02:08:40.912Z,9.02
2023-05-13T02:11:42.388Z,8.98
2023-05-13T02:14:43.417Z,9.13
2023-05-13T02:17:44.102Z,8.82
2023-05-13T02:20:46.488Z,8.85
2023-05-13T02:23:47.901Z,9.02
2023-05-13T02:26:49.196Z,7.97
2023-05-13T02:29:50.591Z,8.38
2023-05-13T02:32:51.629Z,8.73
2023-05-13T02:35:52.468Z,9.35
2023-05-13T02:38:53.840Z,9.00
2023-05-13T02:41:55.270Z,8.32
2023-05-13T02:44:57.797Z,8.55
2023-05-13T02:48:01.024Z,8.50
2023-05-13T02:51:02.420Z,9.30
2023-05-13T02:54:03.957Z,9.02
2023-05-13T02:57:05.250Z,8.35
2023-05-13T03:00:07.630Z,8.73
2023-05-13T03:03:09.114Z,9.85
2023-05-13T03:06:10.248Z,8.27
2023-05-13T03:09:11.151Z,8.75
2023-05-13T03:12:11.968Z,8.43
2023-05-13T03:15:14.479Z,9.02
2023-05-13T03:18:17.495Z,9.40
2023-05-13T03:21:18.652Z,9.57
2023-05-13T03:24:20.172Z,9.00
2023-05-13T03:27:22.049Z,9.32
2023-05-13T03:30:22.976Z,9.30
2023-05-13T03:33:32.160Z,9.55
2023-05-13T03:36:33.283Z,9.57
2023-05-13T03:39:35.111Z,10.18
2023-05-13T03:42:36.310Z,9.77
2023-05-13T03:45:39.217Z,9.70
2023-05-13T03:48:46.002Z,9.25
2023-05-13T03:51:47.577Z,9.75
2023-05-13T03:54:49.138Z,9.45
2023-05-13T03:57:50.461Z,10.38
2023-05-13T04:00:53.698Z,10.20
2023-05-13T04:03:54.787Z,10.32
2023-05-13T04:06:55.955Z,10.27
2023-05-13T04:09:58.363Z,10.85
2023-05-13T04:13:00.064Z,10.68
2023-05-13T04:16:03.212Z,10.38
2023-05-13T04:19:04.416Z,10.05
2023-05-13T04:22:05.658Z,10.27
2023-05-13T04:25:07.138Z,11.02
2023-05-13T04:28:08.793Z,10.73
2023-05-13T04:31:14.283Z,10.27
2023-05-13T04:34:15.787Z,9.95
2023-05-13T04:37:18.296Z,10.35
2023-05-13T04:40:19.496Z,10.38
2023-05-13T04:43:22.513Z,9.80
2023-05-13T04:46:28.018Z,9.82
2023-05-13T04:49:29.378Z,10.90
2023-05-13T04:52:30.916Z,9.55
2023-05-13T04:55:32.032Z,9.80
2023-05-13T04:58:33.217Z,9.70
2023-05-13T05:01:34.707Z,10.20
2023-05-13T05:04:36.058Z,9.88
2023-05-13T05:07:42.492Z,9.88
2023-05-13T05:10:43.982Z,9.65
2023-05-13T05:13:46.265Z,10.20
2023-05-13T05:16:49.230Z,9.35
2023-05-13T05:19:50.512Z,9.20
2023-05-13T05:22:52.066Z,9.55
2023-05-13T05:26:03.978Z,9.45
2023-05-13T05:29:10.150Z,9.35
2023-05-13T05:32:11.243Z,9.20
2023-05-13T05:35:13.622Z,8.60
2023-05-13T05:38:15.271Z,9.88
2023-05-13T05:41:16.921Z,10.38
2023-05-13T05:44:20.516Z,9.02
2023-05-13T05:47:21.990Z,9.05
2023-05-13T05:50:23.955Z,10.32
2023-05-13T05:53:26.407Z,10.63
2023-05-13T05:56:28.539Z,9.48
2023-05-13T05:59:29.419Z,8.93
2023-05-13T06:02:30.465Z,9.43
2023-05-13T06:05:31.815Z,8.73
2023-05-13T06:08:32.875Z,9.38
2023-05-13T06:11:34.240Z,8.38
2023-05-13T06:14:35.568Z,8.63
2023-05-13T06:17:37.314Z,9.65
2023-05-13T06:20:39.806Z,8.45
2023-05-13T06:23:41.118Z,8.20
2023-05-13T06:26:42.244Z,7.22
2023-05-13T06:29:43.592Z,7.78
2023-05-13T06:32:53.479Z,8.73
2023-05-13T06:35:58.778Z,8.88
2023-05-13T06:39:01.187Z,9.70
2023-05-13T06:42:03.007Z,8.68
2023-05-13T06:45:09.390Z,8.48
2023-05-13T06:48:10.827Z,8.48
2023-05-13T06:51:11.957Z,9.02
2023-05-13T06:54:12.932Z,9.10
2023-05-13T06:57:14.383Z,8.40
2023-05-13T07:00:16.653Z,7.90
2023-05-13T07:03:20.701Z,8.48
2023-05-13T07:06:21.696Z,8.88
2023-05-13T07:09:22.445Z,8.00
2023-05-13T07:12:24.040Z,8.60
2023-05-13T07:15:25.218Z,7.65
2023-05-13T07:18:26.386Z,8.45
2023-05-13T07:21:27.971Z,8.00
2023-05-13T07:24:28.902Z,8.10
2023-05-13T07:27:30.164Z,7.07
2023-05-13T07:30:31.370Z,7.50
2023-05-13T07:33:32.663Z,7.57
2023-05-13T07:36:33.560Z,7.43
2023-05-13T07:39:34.760Z,7.15
2023-05-13T07:42:37.108Z,6.72
2023-05-13T07:45:39.446Z,7.13
2023-05-13T07:48:40.604Z,6.43
2023-05-13T07:51:42.223Z,6.60
2023-05-13T07:54:42.987Z,6.53
2023-05-13T07:57:44.083Z,7.00
2023-05-13T08:00:45.129Z,6.65
2023-05-13T08:03:46.389Z,7.35
2023-05-13T08:06:47.831Z,6.25
2023-05-13T08:09:48.670Z,6.18
2023-05-13T08:12:53.812Z,6.15
2023-05-13T08:15:55.235Z,6.05
2023-05-13T08:18:56.362Z,5.95
2023-05-13T08:21:57.659Z,5.38
2023-05-13T08:25:01.204Z,5.55
2023-05-13T08:28:03.690Z,5.75
2023-05-13T08:31:05.248Z,5.70
2023-05-13T08:34:06.278Z,6.50
2023-05-13T08:37:07.139Z,5.90
2023-05-13T08:40:11.099Z,5.95
2023-05-13T08:43:17.196Z,5.30
2023-05-13T08:46:19.626Z,6.18
2023-05-13T08:49:21.321Z,5.53
2023-05-13T08:52:23.242Z,5.75
2023-05-13T08:55:24.654Z,5.55
2023-05-13T08:58:26.036Z,6.60
2023-05-13T09:01:27.600Z,5.82
2023-05-13T09:04:28.762Z,6.13
2023-05-13T09:07:34.169Z,6.32
2023-05-13T09:10:35.247Z,5.80
2023-05-13T09:13:36.520Z,6.95
2023-05-13T09:16:37.783Z,6.22
2023-05-13T09:19:38.727Z,6.47
2023-05-13T09:23:06.417Z,6.63
2023-05-13T09:26:28.572Z,6.55
2023-05-13T09:29:29.959Z,6.55
2023-05-13T09:32:32.251Z,6.20
2023-05-13T09:35:34.533Z,6.68
2023-05-13T09:38:39.342Z,6.18
2023-05-13T09:41:40.537Z,5.93
2023-05-13T09:44:43.252Z,6.75
2023-05-13T09:47:44.799Z,6.70
2023-05-13T09:50:50.151Z,6.28
2023-05-13T09:53:51.455Z,5.85
2023-05-13T09:57:00.380Z,6.95
2023-05-13T10:00:11.018Z,6.93
2023-05-13T10:03:17.076Z,6.43
2023-05-13T10:06:22.727Z,6.20
2023-05-13T10:09:26.787Z,7.32
2023-05-13T10:12:28.860Z,6.38
2023-05-13T10:15:31.274Z,6.50
2023-05-13T10:18:32.695Z,6.68
2023-05-13T10:21:37.131Z,6.38
2023-05-13T10:24:40.225Z,7.70
2023-05-13T10:27:43.637Z,6.82
2023-05-13T10:30:45.475Z,6.60
2023-05-13T10:33:46.992Z,7.65
2023-05-13T10:37:38.062Z,7.28
2023-05-13T10:41:22.099Z,7.57
2023-05-13T10:44:24.701Z,7.70
2023-05-13T10:47:27.404Z,7.70
2023-05-13T10:50:29.079Z,7.57
2023-05-13T10:53:32.376Z,7.47
2023-05-13T10:56:33.614Z,6.88
2023-05-13T10:59:37.365Z,6.63
2023-05-13T11:02:38.486Z,7.53
2023-05-13T11:05:44.935Z,7.00
2023-05-13T11:08:49.623Z,6.80
2023-05-13T11:11:56.045Z,6.82
2023-05-13T11:14:57.234Z,7.28
2023-05-13T11:17:59.114Z,6.90
2023-05-13T11:21:05.777Z,8.15
2023-05-13T11:24:08.312Z,6.75
2023-05-13T11:27:19.678Z,8.13
2023-05-13T11:30:28.223Z,7.65
2023-05-13T11:34:18.761Z,7.70
2023-05-13T11:37:20.611Z,7.35
2023-05-13T11:40:36.629Z,7.38
2023-05-13T11:43:40.932Z,7.15
2023-05-13T11:47:06.245Z,7.55
2023-05-13T11:50:35.545Z,6.40
2023-05-13T11:53:36.648Z,7.00
2023-05-13T11:56:37.318Z,6.93
2023-05-13T11:59:47.668Z,7.45
2023-05-13T12:02:50.597Z,6.88
2023-05-13T12:05:51.952Z,6.88
2023-05-13T12:08:52.971Z,6.45
2023-05-13T12:11:54.849Z,6.50
2023-05-13T12:15:08.730Z,7.10
2023-05-13T12:18:10.234Z,6.72
2023-05-13T12:21:17.548Z,6.65
2023-05-13T12:24:22.806Z,6.72
2023-05-13T12:27:23.692Z,6.28
2023-05-13T12:30:25.096Z,7.22
2023-05-13T12:33:42.834Z,6.78
2023-05-13T12:36:43.595Z,6.20
2023-05-13T12:39:45.002Z,6.75
2023-05-13T12:42:46.165Z,6.95
2023-05-13T12:45:52.108Z,8.05
2023-05-13T12:49:01.389Z,6.30
2023-05-13T12:52:05.128Z,7.45
2023-05-13T12:55:07.263Z,8.40
2023-05-13T12:58:11.483Z,7.30
2023-05-13T13:01:12.592Z,9.07
2023-05-13T13:04:16.971Z,8.18
2023-05-13T13:07:18.643Z,8.60
2023-05-13T13:10:19.944Z,8.48
2023-05-13T13:13:20.994Z,8.48
2023-05-13T13:16:22.234Z,8.73
2023-05-13T13:19:23.138Z,9.15
2023-05-13T13:22:23.935Z,9.45
2023-05-13T13:25:25.042Z,9.75
2023-05-13T13:28:27.120Z,9.45
2023-05-13T13:31:28.046Z,9.02
2023-05-13T13:34:28.832Z,9.13
2023-05-13T13:37:31.106Z,9.07
2023-05-13T13:40:32.187Z,9.20
2023-05-13T13:43:33.153Z,9.63
2023-05-13T13:46:34.279Z,9.65
2023-05-13T13:49:35.291Z,9.40
2023-05-13T13:52:36.221Z,9.93
2023-05-13T13:55:37.095Z,9.80
2023-05-13T13:58:38.115Z,9.93
2023-05-13T14:01:40.501Z,10.32
2023-05-13T14:04:41.409Z,10.82
2023-05-13T14:07:42.564Z,10.15
2023-05-13T14:10:43.246Z,10.88
2023-05-13T14:13:44.020Z,11.05
2023-05-13T14:16:45.049Z,10.48
2023-05-13T14:19:45.874Z,10.75
2023-05-13T14:22:46.930Z,10.20
2023-05-13T14:25:47.930Z,10.25
2023-05-13T14:28:48.910Z,10.35
2023-05-13T14:31:49.949Z,9.90
2023-05-13T14:34:51.048Z,10.32
2023-05-13T14:37:52.246Z,10.95
2023-05-13T14:40:55.947Z,10.38
2023-05-13T14:43:56.745Z,9.93
2023-05-13T14:46:57.715Z,9.80
2023-05-13T14:49:59.169Z,10.07
2023-05-13T14:53:00.202Z,9.82
2023-05-13T14:56:01.131Z,9.73
2023-05-13T14:59:02.776Z,10.77
2023-05-13T15:02:04.454Z,10.68
2023-05-13T15:05:06.210Z,10.55
2023-05-13T15:08:09.066Z,9.77
2023-05-13T15:11:10.045Z,11.68
2023-05-13T15:14:11.058Z,11.13
2023-05-13T15:17:12.341Z,11.15
2023-05-13T15:20:13.843Z,10.50
2023-05-13T15:23:15.210Z,11.77
2023-05-13T15:26:16.087Z,12.65
2023-05-13T15:29:16.913Z,11.35
2023-05-13T15:32:17.880Z,11.45
2023-05-13T15:35:18.549Z,11.75
2023-05-13T15:38:19.549Z,11.85
2023-05-13T15:41:20.353Z,12.95
2023-05-13T15:44:22.539Z,12.02
2023-05-13T15:47:23.679Z,12.10
2023-05-13T15:50:26.229Z,11.82
2023-05-13T15:53:27.250Z,12.30
2023-05-13T15:56:28.220Z,12.52
2023-05-13T15:59:29.142Z,11.57
2023-05-13T16:02:37.291Z,11.45
2023-05-13T16:05:39.471Z,11.30
2023-05-13T16:08:40.559Z,11.40
2023-05-13T16:11:43.717Z,11.48
2023-05-13T16:14:44.985Z,11.23
2023-05-13T16:17:45.770Z,10.98
2023-05-13T16:20:47.256Z,11.52
2023-05-13T16:23:47.877Z,11.07
2023-05-13T16:26:48.686Z,12.13
2023-05-13T16:29:49.485Z,11.63
2023-05-13T16:32:55.831Z,12.88
2023-05-13T16:35:56.860Z,12.63
2023-05-13T16:38:57.658Z,12.52
2023-05-13T16:41:58.382Z,12.07
2023-05-13T16:44:59.312Z,11.65
2023-05-13T16:48:00.791Z,11.05
2023-05-13T16:51:01.987Z,11.35
2023-05-13T16:54:02.936Z,10.32
2023-05-13T16:57:04.240Z,10.50
2023-05-13T17:00:06.441Z,9.52
2023-05-13T17:03:08.023Z,9.93
2023-05-13T17:06:09.712Z,10.15
2023-05-13T17:09:12.001Z,9.88
2023-05-13T17:12:12.993Z,9.27
2023-05-13T17:15:13.992Z,10.13
2023-05-13T17:18:15.166Z,9.25
2023-05-13T17:21:15.970Z,9.07
2023-05-13T17:24:16.825Z,8.80
2023-05-13T17:27:17.754Z,9.02
2023-05-13T17:30:19.229Z,8.75
2023-05-13T17:33:19.974Z,8.82
2023-05-13T17:36:21.293Z,8.07
2023-05-13T17:39:22.168Z,6.78
2023-05-13T17:42:23.391Z,7.82
2023-05-13T17:45:24.417Z,8.05
2023-05-13T17:48:27.100Z,7.22
2023-05-13T17:51:28.147Z,8.02
2023-05-13T17:54:29.382Z,7.47
2023-05-13T17:57:32.137Z,8.80
2023-05-13T18:00:33.085Z,7.68
2023-05-13T18:03:34.962Z,8.10
2023-05-13T18:06:35.964Z,8.82
2023-05-13T18:09:36.845Z,8.85
2023-05-13T18:12:37.694Z,8.38
2023-05-13T18:15:38.752Z,8.57
2023-05-13T18:18:39.574Z,8.80
2023-05-13T18:21:40.512Z,9.32
2023-05-13T18:24:41.608Z,8.38
2023-05-13T18:27:42.311Z,8.48
2023-05-13T18:30:43.482Z,8.45
2023-05-13T18:33:44.812Z,9.68
2023-05-13T18:36:46.234Z,8.65
2023-05-13T18:39:47.312Z,8.75
2023-05-13T18:42:48.258Z,7.70
2023-05-13T18:45:49.417Z,7.40
2023-05-13T18:48:51.271Z,7.72
2023-05-13T18:51:52.497Z,7.97
2023-05-13T18:54:53.857Z,7.55
2023-05-13T18:57:54.706Z,8.20
2023-05-13T19:00:55.824Z,7.90
2023-05-13T19:03:57.081Z,8.00
2023-05-13T19:06:58.346Z,7.75
2023-05-13T19:09:59.674Z,8.48
2023-05-13T19:13:00.468Z,8.75
2023-05-13T19:16:01.560Z,8.18
2023-05-13T19:19:03.002Z,8.27
2023-05-13T19:22:04.513Z,8.70
2023-05-13T19:25:06.205Z,8.75
2023-05-13T19:28:09.031Z,8.18
2023-05-13T19:31:10.567Z,9.02
2023-05-13T19:34:12.155Z,8.35
2023-05-13T19:37:13.284Z,8.60
2023-05-13T19:40:14.377Z,8.63
2023-05-13T19:43:15.283Z,8.38
2023-05-13T19:46:16.253Z,8.85
2023-05-13T19:49:17.177Z,8.20
2023-05-13T19:52:18.471Z,8.45
2023-05-13T19:55:20.496Z,9.30
2023-05-13T19:58:21.832Z,9.32
2023-05-13T20:01:25.088Z,8.25
2023-05-13T20:04:26.160Z,8.57
2023-05-13T20:07:27.453Z,8.50
2023-05-13T20:10:28.993Z,9.13
2023-05-13T20:13:29.836Z,9.20
2023-05-13T20:16:31.242Z,9.32
2023-05-13T20:19:32.792Z,9.57
2023-05-13T20:22:33.560Z,8.13
2023-05-13T20:25:34.472Z,8.82
2023-05-13T20:28:36.889Z,8.80
2023-05-13T20:31:42.587Z,9.02
2023-05-13T20:34:49.338Z,8.68
2023-05-13T20:37:50.508Z,8.25
2023-05-13T20:40:51.346Z,8.13
2023-05-13T20:43:52.569Z,8.55
2023-05-13T20:46:53.806Z,7.85
2023-05-13T20:49:54.500Z,8.15
2023-05-13T20:52:55.708Z,8.13
2023-05-13T20:55:56.747Z,8.52
2023-05-13T20:58:57.631Z,8.52
2023-05-13T21:01:58.905Z,9.13
2023-05-13T21:05:00.093Z,9.85
2023-05-13T21:08:01.389Z,10.07
2023-05-13T21:11:02.823Z,9.95
2023-05-13T21:14:03.905Z,10.32
2023-05-13T21:17:04.853Z,9.68
2023-05-13T21:20:06.791Z,10.15
2023-05-13T21:23:08.048Z,9.32
2023-05-13T21:26:12.916Z,10.13
2023-05-13T21:29:13.903Z,9.63
2023-05-13T21:32:15.357Z,8.55
2023-05-13T21:35:16.818Z,9.02
2023-05-13T21:38:18.216Z,9.20
2023-05-13T21:41:20.272Z,9.18
2023-05-13T21:44:21.832Z,9.25
2023-05-13T21:47:22.932Z,9.10
2023-05-13T21:50:24.369Z,8.63
2023-05-13T21:53:25.445Z,9.20
2023-05-13T21:56:26.766Z,9.60
2023-05-13T21:59:27.564Z,9.82
2023-05-13T22:02:28.531Z,9.55
2023-05-13T22:05:29.932Z,9.65
2023-05-13T22:08:31.189Z,9.40
2023-05-13T22:11:32.659Z,8.93
2023-05-13T22:14:33.755Z,8.85
2023-05-13T22:17:35.162Z,8.77
2023-05-13T22:20:36.583Z,9.48
2023-05-13T22:23:37.871Z,8.63
2023-05-13T22:26:39.630Z,8.32
2023-05-13T22:29:40.722Z,9.52
2023-05-13T22:32:41.686Z,9.63
2023-05-13T22:35:42.461Z,9.18
2023-05-13T22:38:44.353Z,8.98
2023-05-13T22:41:45.723Z,9.25
2023-05-13T22:44:46.692Z,9.88
2023-05-13T22:47:49.460Z,8.88
2023-05-13T22:50:50.879Z,9.35
2023-05-13T22:53:51.901Z,9.15
2023-05-13T22:56:53.212Z,9.82
2023-05-13T22:59:54.491Z,9.52
2023-05-13T23:02:56.091Z,9.15
2023-05-13T23:05:57.522Z,10.15
2023-05-13T23:08:58.434Z,9.05
2023-05-13T23:11:59.461Z,10.23
2023-05-13T23:15:00.274Z,10.68
2023-05-13T23:18:01.266Z,11.10
2023-05-13T23:21:02.918Z,11.55
2023-05-13T23:24:04.330Z,11.73
2023-05-13T23:27:05.884Z,11.60
2023-05-13T23:30:07.836Z,12.65
2023-05-13T23:33:09.464Z,12.52
2023-05-13T23:36:10.504Z,12.60
2023-05-13T23:39:11.498Z,13.98
2023-05-13T23:42:12.877Z,13.77
2023-05-13T23:45:14.366Z,13.45
2023-05-13T23:48:15.481Z,13.45
2023-05-13T23:51:16.210Z,13.23
2023-05-13T23:54:17.108Z,13.57
2023-05-13T23:57:18.464Z,13.15
